createdAt,value
2022-10-11T00:16:35.863Z,95.3
2022-10-11T00:36:48.482Z,95.7
2022-10-11T00:57:46.579Z,95.7
2022-10-11T01:17:39.237Z,95.6
2022-10-11T01:36:34.389Z,95.2
2022-10-11T01:57:42.034Z,94.6
2022-10-11T02:17:42.624Z,94.2
2022-10-11T02:37:20.837Z,94.1
2022-10-11T02:57:24.203Z,94.2
2022-10-11T03:16:42.598Z,94.3
2022-10-11T03:38:25.680Z,94.5
2022-10-11T03:58:01.747Z,94.7
2022-10-11T04:16:42.270Z,94.5
2022-10-11T04:37:43.295Z,94.2
2022-10-11T04:57:51.383Z,93.5
2022-10-11T05:17:25.639Z,93.3
2022-10-11T05:37:27.778Z,94.1
2022-10-11T05:57:39.705Z,94.3
2022-10-11T06:17:29.864Z,94.4
2022-10-11T06:37:38.036Z,94.1
2022-10-11T06:58:19.748Z,93.6
2022-10-11T07:17:27.358Z,91.4
2022-10-11T07:37:30.432Z,87
2022-10-11T07:57:02.928Z,84
2022-10-11T08:37:20.077Z,79.6
2022-10-11T08:57:34.449Z,78.4
2022-10-11T09:17:23.343Z,76.6
2022-10-11T09:36:44.188Z,71.9
2022-10-11T09:57:48.821Z,70.5
2022-10-11T10:17:53.666Z,69.4
2022-10-11T10:37:42.797Z,66.5
2022-10-11T10:57:04.363Z,61.3
2022-10-11T11:16:39.703Z,60.1
2022-10-11T11:37:47.787Z,58
2022-10-11T11:58:25.787Z,57.3
2022-10-11T12:17:57.598Z,55.2
2022-10-11T12:38:21.836Z,60.9
2022-10-11T12:56:59.158Z,59.6
2022-10-11T13:17:25.192Z,55.4
2022-10-11T13:37:37.977Z,52.5
2022-10-11T13:58:27.136Z,49.6
2022-10-11T14:18:11.702Z,50
2022-10-11T14:38:06.829Z,52.1
2022-10-11T14:57:39.980Z,57.4
2022-10-11T15:17:32.820Z,62.3
2022-10-11T15:38:18.156Z,65.2
2022-10-11T15:57:53.222Z,67.2
2022-10-11T16:17:49.297Z,70.4
2022-10-11T16:37:08.470Z,75.6
2022-10-11T16:58:11.952Z,76.7
2022-10-11T17:18:10.519Z,78.9
2022-10-11T17:38:10.559Z,75.7
2022-10-11T17:57:13.130Z,73.4
2022-10-11T18:17:33.575Z,73
2022-10-11T18:57:52.660Z,74.6
2022-10-11T19:18:03.821Z,75.6
2022-10-11T19:37:12.785Z,79.5
2022-10-11T19:58:08.242Z,81.8
2022-10-11T20:17:26.327Z,83.1
2022-10-11T20:36:53.225Z,84.3
2022-10-11T20:57:51.271Z,85.8
2022-10-11T21:17:15.662Z,86.4
2022-10-11T21:38:05.956Z,87.5
2022-10-11T21:57:43.061Z,88.1
2022-10-11T22:17:40.241Z,88.7
2022-10-11T22:38:04.780Z,89.6
2022-10-11T22:57:42.103Z,89.8
2022-10-11T23:18:07.681Z,90.3
2022-10-11T23:38:04.580Z,90.9
2022-10-11T23:56:31.214Z,91.2
